sensor_id;sensor_type;location;lat;lon;timestamp;P1;durP1;ratioP1;P2;durP2;ratioP2
35074;SDS011;21260;34.984;32.490;2023-04-06T00:02:21;15.93;;;3.70;;
35074;SDS011;21260;34.984;32.490;2023-04-06T00:04:48;14.52;;;4.05;;
35074;SDS011;21260;34.984;32.490;2023-04-06T00:07:14;17.60;;;4.40;;
35074;SDS011;21260;34.984;32.490;2023-04-06T00:09:40;11.15;;;3.70;;
35074;SDS011;21260;34.984;32.490;2023-04-06T00:12:07;14.95;;;4.13;;
35074;SDS011;21260;34.984;32.490;2023-04-06T00:14:33;18.10;;;4.72;;
35074;SDS011;21260;34.984;32.490;2023-04-06T00:16:59;16.88;;;4.07;;
35074;SDS011;21260;34.984;32.490;2023-04-06T00:19:26;15.13;;;3.95;;
35074;SDS011;21260;34.984;32.490;2023-04-06T00:21:52;16.95;;;4.43;;
35074;SDS011;21260;34.984;32.490;2023-04-06T00:24:19;19.98;;;4.50;;
35074;SDS011;21260;34.984;32.490;2023-04-06T00:26:45;16.10;;;4.03;;
35074;SDS011;21260;34.984;32.490;2023-04-06T00:29:11;11.43;;;3.72;;
35074;SDS011;21260;34.984;32.490;2023-04-06T00:31:38;16.20;;;4.13;;
35074;SDS011;21260;34.984;32.490;2023-04-06T00:34:05;14.83;;;4.17;;
35074;SDS011;21260;34.984;32.490;2023-04-06T00:36:31;16.17;;;4.10;;
35074;SDS011;21260;34.984;32.490;2023-04-06T00:38:58;13.73;;;4.17;;
35074;SDS011;21260;34.984;32.490;2023-04-06T00:41:24;17.23;;;4.22;;
35074;SDS011;21260;34.984;32.490;2023-04-06T00:43:51;16.83;;;4.32;;
35074;SDS011;21260;34.984;32.490;2023-04-06T00:46:18;13.60;;;3.72;;
35074;SDS011;21260;34.984;32.490;2023-04-06T00:48:45;12.07;;;3.40;;
35074;SDS011;21260;34.984;32.490;2023-04-06T00:51:11;15.80;;;4.10;;
35074;SDS011;21260;34.984;32.490;2023-04-06T00:53:38;14.20;;;3.75;;
35074;SDS011;21260;34.984;32.490;2023-04-06T00:56:04;13.90;;;3.80;;
35074;SDS011;21260;34.984;32.490;2023-04-06T00:58:31;12.02;;;3.33;;
35074;SDS011;21260;34.984;32.490;2023-04-06T01:00:57;12.82;;;3.80;;
35074;SDS011;21260;34.984;32.490;2023-04-06T01:03:23;13.25;;;3.83;;
35074;SDS011;21260;34.984;32.490;2023-04-06T01:05:50;14.60;;;3.93;;
35074;SDS011;21260;34.984;32.490;2023-04-06T01:08:20;15.60;;;3.78;;
35074;SDS011;21260;34.984;32.490;2023-04-06T01:10:47;16.55;;;4.35;;
35074;SDS011;21260;34.984;32.490;2023-04-06T01:13:14;16.35;;;4.22;;
35074;SDS011;21260;34.984;32.490;2023-04-06T01:15:40;15.07;;;4.32;;
35074;SDS011;21260;34.984;32.490;2023-04-06T01:18:08;15.23;;;4.30;;
35074;SDS011;21260;34.984;32.490;2023-04-06T01:20:35;12.87;;;4.13;;
35074;SDS011;21260;34.984;32.490;2023-04-06T01:23:02;15.23;;;3.75;;
35074;SDS011;21260;34.984;32.490;2023-04-06T01:25:28;15.68;;;4.30;;
35074;SDS011;21260;34.984;32.490;2023-04-06T01:27:54;12.68;;;3.72;;
35074;SDS011;21260;34.984;32.490;2023-04-06T01:30:20;14.60;;;3.72;;
35074;SDS011;21260;34.984;32.490;2023-04-06T01:32:47;15.33;;;4.07;;
35074;SDS011;21260;34.984;32.490;2023-04-06T01:35:13;12.27;;;3.47;;
35074;SDS011;21260;34.984;32.490;2023-04-06T01:37:39;16.00;;;3.78;;
35074;SDS011;21260;34.984;32.490;2023-04-06T01:40:06;14.03;;;3.90;;
35074;SDS011;21260;34.984;32.490;2023-04-06T01:42:33;15.15;;;4.22;;
35074;SDS011;21260;34.984;32.490;2023-04-06T01:44:59;16.25;;;4.20;;
35074;SDS011;21260;34.984;32.490;2023-04-06T01:47:25;17.63;;;4.30;;
35074;SDS011;21260;34.984;32.490;2023-04-06T01:49:51;10.82;;;3.38;;
35074;SDS011;21260;34.984;32.490;2023-04-06T01:52:17;14.25;;;3.95;;
35074;SDS011;21260;34.984;32.490;2023-04-06T01:54:46;18.02;;;4.20;;
35074;SDS011;21260;34.984;32.490;2023-04-06T01:57:12;10.65;;;3.78;;
35074;SDS011;21260;34.984;32.490;2023-04-06T01:59:38;13.30;;;3.88;;
35074;SDS011;21260;34.984;32.490;2023-04-06T02:02:04;13.80;;;3.97;;
35074;SDS011;21260;34.984;32.490;2023-04-06T02:04:30;10.35;;;3.67;;
35074;SDS011;21260;34.984;32.490;2023-04-06T02:06:57;14.03;;;3.90;;
35074;SDS011;21260;34.984;32.490;2023-04-06T02:09:23;10.57;;;3.50;;
35074;SDS011;21260;34.984;32.490;2023-04-06T02:11:49;16.65;;;4.40;;
35074;SDS011;21260;34.984;32.490;2023-04-06T02:14:15;13.93;;;3.63;;
35074;SDS011;21260;34.984;32.490;2023-04-06T02:16:41;14.60;;;4.03;;
35074;SDS011;21260;34.984;32.490;2023-04-06T02:19:09;14.20;;;3.72;;
35074;SDS011;21260;34.984;32.490;2023-04-06T02:21:35;15.27;;;4.28;;
35074;SDS011;21260;34.984;32.490;2023-04-06T02:24:02;17.73;;;4.22;;
35074;SDS011;21260;34.984;32.490;2023-04-06T02:26:28;17.97;;;4.20;;
35074;SDS011;21260;34.984;32.490;2023-04-06T02:28:54;14.70;;;3.60;;
35074;SDS011;21260;34.984;32.490;2023-04-06T02:31:21;15.70;;;4.18;;
35074;SDS011;21260;34.984;32.490;2023-04-06T02:33:47;18.47;;;4.20;;
35074;SDS011;21260;34.984;32.490;2023-04-06T02:36:13;13.43;;;4.03;;
35074;SDS011;21260;34.984;32.490;2023-04-06T02:38:40;17.85;;;4.07;;
35074;SDS011;21260;34.984;32.490;2023-04-06T02:41:06;11.98;;;3.92;;
35074;SDS011;21260;34.984;32.490;2023-04-06T02:43:32;14.30;;;4.05;;
35074;SDS011;21260;34.984;32.490;2023-04-06T02:45:58;12.73;;;3.50;;
35074;SDS011;21260;34.984;32.490;2023-04-06T02:48:25;14.02;;;3.88;;
35074;SDS011;21260;34.984;32.490;2023-04-06T02:50:51;12.35;;;4.00;;
35074;SDS011;21260;34.984;32.490;2023-04-06T02:53:17;13.57;;;4.27;;
35074;SDS011;21260;34.984;32.490;2023-04-06T02:55:43;13.68;;;3.97;;
35074;SDS011;21260;34.984;32.490;2023-04-06T02:58:10;14.27;;;3.85;;
35074;SDS011;21260;34.984;32.490;2023-04-06T03:00:36;11.50;;;3.90;;
35074;SDS011;21260;34.984;32.490;2023-04-06T03:03:03;14.85;;;4.20;;
35074;SDS011;21260;34.984;32.490;2023-04-06T03:05:29;19.50;;;3.83;;
35074;SDS011;21260;34.984;32.490;2023-04-06T03:07:55;15.65;;;3.97;;
35074;SDS011;21260;34.984;32.490;2023-04-06T03:10:22;13.15;;;3.72;;
35074;SDS011;21260;34.984;32.490;2023-04-06T03:12:48;15.55;;;4.15;;
35074;SDS011;21260;34.984;32.490;2023-04-06T03:15:14;13.75;;;3.60;;
35074;SDS011;21260;34.984;32.490;2023-04-06T03:17:40;14.15;;;3.95;;
35074;SDS011;21260;34.984;32.490;2023-04-06T03:20:06;15.67;;;4.03;;
35074;SDS011;21260;34.984;32.490;2023-04-06T03:22:33;14.80;;;4.53;;
35074;SDS011;21260;34.984;32.490;2023-04-06T03:25:00;12.60;;;3.88;;
35074;SDS011;21260;34.984;32.490;2023-04-06T03:27:27;13.82;;;3.67;;
35074;SDS011;21260;34.984;32.490;2023-04-06T03:29:53;12.63;;;3.60;;
35074;SDS011;21260;34.984;32.490;2023-04-06T03:32:19;16.98;;;4.22;;
35074;SDS011;21260;34.984;32.490;2023-04-06T03:34:46;13.60;;;3.80;;
35074;SDS011;21260;34.984;32.490;2023-04-06T03:37:12;19.23;;;4.00;;
35074;SDS011;21260;34.984;32.490;2023-04-06T03:39:39;12.50;;;4.00;;
35074;SDS011;21260;34.984;32.490;2023-04-06T03:42:05;14.60;;;3.60;;
35074;SDS011;21260;34.984;32.490;2023-04-06T03:44:32;13.02;;;3.95;;
35074;SDS011;21260;34.984;32.490;2023-04-06T03:46:59;17.10;;;3.87;;
35074;SDS011;21260;34.984;32.490;2023-04-06T03:49:25;13.65;;;3.78;;
35074;SDS011;21260;34.984;32.490;2023-04-06T03:51:52;16.02;;;4.05;;
35074;SDS011;21260;34.984;32.490;2023-04-06T03:54:19;10.63;;;3.45;;
35074;SDS011;21260;34.984;32.490;2023-04-06T03:56:45;14.30;;;3.80;;
35074;SDS011;21260;34.984;32.490;2023-04-06T03:59:11;14.65;;;4.00;;
35074;SDS011;21260;34.984;32.490;2023-04-06T04:01:37;12.23;;;4.00;;
35074;SDS011;21260;34.984;32.490;2023-04-06T04:04:04;15.85;;;4.15;;
35074;SDS011;21260;34.984;32.490;2023-04-06T04:06:31;14.00;;;4.20;;
35074;SDS011;21260;34.984;32.490;2023-04-06T04:08:57;16.80;;;4.17;;
35074;SDS011;21260;34.984;32.490;2023-04-06T04:11:23;19.58;;;4.68;;
35074;SDS011;21260;34.984;32.490;2023-04-06T04:13:49;13.13;;;3.90;;
35074;SDS011;21260;34.984;32.490;2023-04-06T04:16:15;13.52;;;3.80;;
35074;SDS011;21260;34.984;32.490;2023-04-06T04:18:41;13.18;;;3.80;;
35074;SDS011;21260;34.984;32.490;2023-04-06T04:21:08;14.27;;;3.83;;
35074;SDS011;21260;34.984;32.490;2023-04-06T04:23:35;15.30;;;3.97;;
35074;SDS011;21260;34.984;32.490;2023-04-06T04:26:01;11.20;;;4.10;;
35074;SDS011;21260;34.984;32.490;2023-04-06T04:28:27;12.52;;;3.88;;
35074;SDS011;21260;34.984;32.490;2023-04-06T04:30:53;12.32;;;3.60;;
35074;SDS011;21260;34.984;32.490;2023-04-06T04:33:20;12.23;;;3.53;;
35074;SDS011;21260;34.984;32.490;2023-04-06T04:35:46;12.05;;;3.58;;
35074;SDS011;21260;34.984;32.490;2023-04-06T04:38:12;14.60;;;3.60;;
35074;SDS011;21260;34.984;32.490;2023-04-06T04:40:39;12.03;;;3.57;;
35074;SDS011;21260;34.984;32.490;2023-04-06T04:43:05;10.13;;;3.20;;
35074;SDS011;21260;34.984;32.490;2023-04-06T04:45:31;13.73;;;4.00;;
35074;SDS011;21260;34.984;32.490;2023-04-06T04:47:58;14.02;;;3.47;;
35074;SDS011;21260;34.984;32.490;2023-04-06T04:50:24;9.37;;;3.20;;
35074;SDS011;21260;34.984;32.490;2023-04-06T04:52:51;14.27;;;3.70;;
35074;SDS011;21260;34.984;32.490;2023-04-06T04:55:17;12.52;;;3.25;;
35074;SDS011;21260;34.984;32.490;2023-04-06T04:57:43;12.55;;;3.50;;
35074;SDS011;21260;34.984;32.490;2023-04-06T05:00:10;9.73;;;3.05;;
35074;SDS011;21260;34.984;32.490;2023-04-06T05:02:37;10.47;;;3.40;;
35074;SDS011;21260;34.984;32.490;2023-04-06T05:05:04;13.55;;;3.60;;
35074;SDS011;21260;34.984;32.490;2023-04-06T05:07:31;16.10;;;3.28;;
35074;SDS011;21260;34.984;32.490;2023-04-06T05:09:57;13.20;;;3.65;;
35074;SDS011;21260;34.984;32.490;2023-04-06T05:12:24;14.93;;;3.57;;
35074;SDS011;21260;34.984;32.490;2023-04-06T05:14:52;11.63;;;3.35;;
35074;SDS011;21260;34.984;32.490;2023-04-06T05:17:19;10.32;;;3.55;;
35074;SDS011;21260;34.984;32.490;2023-04-06T05:19:45;12.88;;;3.05;;
35074;SDS011;21260;34.984;32.490;2023-04-06T05:22:12;10.98;;;3.35;;
35074;SDS011;21260;34.984;32.490;2023-04-06T05:24:41;12.70;;;3.58;;
35074;SDS011;21260;34.984;32.490;2023-04-06T05:27:07;12.73;;;3.30;;
35074;SDS011;21260;34.984;32.490;2023-04-06T05:29:33;12.30;;;2.97;;
35074;SDS011;21260;34.984;32.490;2023-04-06T05:32:00;12.30;;;3.42;;
35074;SDS011;21260;34.984;32.490;2023-04-06T05:34:27;14.30;;;3.28;;
35074;SDS011;21260;34.984;32.490;2023-04-06T05:36:54;13.48;;;3.22;;
35074;SDS011;21260;34.984;32.490;2023-04-06T05:39:20;15.63;;;3.40;;
35074;SDS011;21260;34.984;32.490;2023-04-06T05:41:46;9.70;;;3.08;;
35074;SDS011;21260;34.984;32.490;2023-04-06T05:44:14;13.23;;;3.20;;
35074;SDS011;21260;34.984;32.490;2023-04-06T05:46:40;12.18;;;3.00;;
35074;SDS011;21260;34.984;32.490;2023-04-06T05:49:06;13.63;;;3.20;;
35074;SDS011;21260;34.984;32.490;2023-04-06T05:51:33;10.95;;;3.13;;
35074;SDS011;21260;34.984;32.490;2023-04-06T05:54:00;13.93;;;3.00;;
35074;SDS011;21260;34.984;32.490;2023-04-06T05:56:26;10.67;;;3.03;;
35074;SDS011;21260;34.984;32.490;2023-04-06T05:58:52;12.75;;;2.83;;
35074;SDS011;21260;34.984;32.490;2023-04-06T06:01:19;12.57;;;3.10;;
35074;SDS011;21260;34.984;32.490;2023-04-06T06:03:45;10.75;;;3.10;;
35074;SDS011;21260;34.984;32.490;2023-04-06T06:06:12;12.27;;;3.00;;
35074;SDS011;21260;34.984;32.490;2023-04-06T06:08:38;12.13;;;2.87;;
35074;SDS011;21260;34.984;32.490;2023-04-06T06:11:04;11.88;;;2.88;;
35074;SDS011;21260;34.984;32.490;2023-04-06T06:13:31;16.38;;;3.45;;
35074;SDS011;21260;34.984;32.490;2023-04-06T06:15:57;13.02;;;3.20;;
35074;SDS011;21260;34.984;32.490;2023-04-06T06:18:23;11.27;;;3.03;;
35074;SDS011;21260;34.984;32.490;2023-04-06T06:20:49;12.93;;;3.15;;
35074;SDS011;21260;34.984;32.490;2023-04-06T06:23:16;11.45;;;2.90;;
35074;SDS011;21260;34.984;32.490;2023-04-06T06:25:42;10.18;;;2.60;;
35074;SDS011;21260;34.984;32.490;2023-04-06T06:28:08;11.45;;;3.03;;
35074;SDS011;21260;34.984;32.490;2023-04-06T06:30:35;15.95;;;3.08;;
35074;SDS011;21260;34.984;32.490;2023-04-06T06:33:01;10.95;;;2.92;;
35074;SDS011;21260;34.984;32.490;2023-04-06T06:35:28;11.02;;;2.75;;
35074;SDS011;21260;34.984;32.490;2023-04-06T06:37:54;10.15;;;2.80;;
35074;SDS011;21260;34.984;32.490;2023-04-06T06:40:21;12.35;;;3.30;;
35074;SDS011;21260;34.984;32.490;2023-04-06T06:42:49;9.13;;;3.15;;
35074;SDS011;21260;34.984;32.490;2023-04-06T06:45:17;10.15;;;2.83;;
35074;SDS011;21260;34.984;32.490;2023-04-06T06:47:45;11.30;;;2.97;;
35074;SDS011;21260;34.984;32.490;2023-04-06T06:50:12;11.27;;;2.80;;
35074;SDS011;21260;34.984;32.490;2023-04-06T06:52:39;16.27;;;3.10;;
35074;SDS011;21260;34.984;32.490;2023-04-06T06:55:06;12.15;;;2.97;;
35074;SDS011;21260;34.984;32.490;2023-04-06T06:57:34;8.55;;;2.60;;
35074;SDS011;21260;34.984;32.490;2023-04-06T07:00:00;10.68;;;2.67;;
35074;SDS011;21260;34.984;32.490;2023-04-06T07:02:26;9.35;;;2.75;;
35074;SDS011;21260;34.984;32.490;2023-04-06T07:04:52;9.53;;;2.60;;
35074;SDS011;21260;34.984;32.490;2023-04-06T07:07:19;10.65;;;2.60;;
35074;SDS011;21260;34.984;32.490;2023-04-06T07:09:45;10.98;;;2.45;;
35074;SDS011;21260;34.984;32.490;2023-04-06T07:12:11;9.83;;;2.27;;
35074;SDS011;21260;34.984;32.490;2023-04-06T07:14:37;9.70;;;2.90;;
35074;SDS011;21260;34.984;32.490;2023-04-06T07:17:04;8.40;;;2.40;;
35074;SDS011;21260;34.984;32.490;2023-04-06T07:19:30;9.37;;;2.53;;
35074;SDS011;21260;34.984;32.490;2023-04-06T07:21:56;8.38;;;2.60;;
35074;SDS011;21260;34.984;32.490;2023-04-06T07:24:23;9.55;;;2.60;;
35074;SDS011;21260;34.984;32.490;2023-04-06T07:26:49;13.48;;;2.90;;
35074;SDS011;21260;34.984;32.490;2023-04-06T07:29:16;7.25;;;2.53;;
35074;SDS011;21260;34.984;32.490;2023-04-06T07:31:43;7.50;;;2.33;;
35074;SDS011;21260;34.984;32.490;2023-04-06T07:34:10;11.00;;;2.50;;
35074;SDS011;21260;34.984;32.490;2023-04-06T07:36:36;8.20;;;2.20;;
35074;SDS011;21260;34.984;32.490;2023-04-06T07:39:02;7.60;;;2.50;;
35074;SDS011;21260;34.984;32.490;2023-04-06T07:41:29;9.70;;;2.30;;
35074;SDS011;21260;34.984;32.490;2023-04-06T07:43:55;10.45;;;2.50;;
35074;SDS011;21260;34.984;32.490;2023-04-06T07:46:21;10.18;;;2.40;;
35074;SDS011;21260;34.984;32.490;2023-04-06T07:48:47;9.80;;;2.55;;
35074;SDS011;21260;34.984;32.490;2023-04-06T07:51:15;9.90;;;2.55;;
35074;SDS011;21260;34.984;32.490;2023-04-06T07:53:43;8.48;;;2.50;;
35074;SDS011;21260;34.984;32.490;2023-04-06T07:56:11;8.55;;;2.70;;
35074;SDS011;21260;34.984;32.490;2023-04-06T07:58:37;8.55;;;2.38;;
35074;SDS011;21260;34.984;32.490;2023-04-06T08:01:04;7.40;;;2.13;;
35074;SDS011;21260;34.984;32.490;2023-04-06T08:03:30;5.78;;;2.15;;
35074;SDS011;21260;34.984;32.490;2023-04-06T08:06:00;8.45;;;2.17;;
35074;SDS011;21260;34.984;32.490;2023-04-06T08:08:27;8.63;;;2.50;;
35074;SDS011;21260;34.984;32.490;2023-04-06T08:10:54;8.87;;;2.20;;
35074;SDS011;21260;34.984;32.490;2023-04-06T08:13:21;8.13;;;2.15;;
35074;SDS011;21260;34.984;32.490;2023-04-06T08:15:47;6.70;;;1.92;;
35074;SDS011;21260;34.984;32.490;2023-04-06T08:18:13;7.27;;;1.93;;
35074;SDS011;21260;34.984;32.490;2023-04-06T08:20:39;8.77;;;1.98;;
35074;SDS011;21260;34.984;32.490;2023-04-06T08:23:06;8.30;;;2.10;;
35074;SDS011;21260;34.984;32.490;2023-04-06T08:25:35;8.03;;;2.20;;
35074;SDS011;21260;34.984;32.490;2023-04-06T08:28:02;7.05;;;2.33;;
35074;SDS011;21260;34.984;32.490;2023-04-06T08:30:29;10.30;;;2.50;;
35074;SDS011;21260;34.984;32.490;2023-04-06T08:32:56;9.60;;;2.30;;
35074;SDS011;21260;34.984;32.490;2023-04-06T08:35:22;9.07;;;2.17;;
35074;SDS011;21260;34.984;32.490;2023-04-06T08:37:48;7.05;;;2.20;;
35074;SDS011;21260;34.984;32.490;2023-04-06T08:40:15;9.13;;;2.60;;
35074;SDS011;21260;34.984;32.490;2023-04-06T08:42:45;7.32;;;2.45;;
35074;SDS011;21260;34.984;32.490;2023-04-06T08:45:19;8.77;;;2.50;;
35074;SDS011;21260;34.984;32.490;2023-04-06T08:47:46;11.30;;;2.92;;
35074;SDS011;21260;34.984;32.490;2023-04-06T08:50:17;7.47;;;2.30;;
35074;SDS011;21260;34.984;32.490;2023-04-06T08:52:47;10.82;;;2.30;;
35074;SDS011;21260;34.984;32.490;2023-04-06T08:55:15;8.73;;;2.42;;
35074;SDS011;21260;34.984;32.490;2023-04-06T08:57:41;11.63;;;2.40;;
35074;SDS011;21260;34.984;32.490;2023-04-06T09:00:10;9.40;;;2.30;;
35074;SDS011;21260;34.984;32.490;2023-04-06T09:02:41;8.32;;;2.20;;
35074;SDS011;21260;34.984;32.490;2023-04-06T09:05:12;8.07;;;2.30;;
35074;SDS011;21260;34.984;32.490;2023-04-06T09:07:39;8.27;;;2.43;;
35074;SDS011;21260;34.984;32.490;2023-04-06T09:10:05;11.60;;;1.98;;
35074;SDS011;21260;34.984;32.490;2023-04-06T09:12:35;9.93;;;2.10;;
35074;SDS011;21260;34.984;32.490;2023-04-06T09:15:01;8.95;;;2.13;;
35074;SDS011;21260;34.984;32.490;2023-04-06T09:17:29;8.68;;;2.35;;
35074;SDS011;21260;34.984;32.490;2023-04-06T09:20:01;6.25;;;2.10;;
35074;SDS011;21260;34.984;32.490;2023-04-06T09:22:36;8.10;;;2.05;;
35074;SDS011;21260;34.984;32.490;2023-04-06T09:25:04;9.30;;;2.05;;
35074;SDS011;21260;34.984;32.490;2023-04-06T09:27:35;7.60;;;2.40;;
35074;SDS011;21260;34.984;32.490;2023-04-06T09:30:07;8.45;;;2.13;;
35074;SDS011;21260;34.984;32.490;2023-04-06T09:32:45;4.93;;;2.08;;
35074;SDS011;21260;34.984;32.490;2023-04-06T09:35:13;8.30;;;2.20;;
35074;SDS011;21260;34.984;32.490;2023-04-06T09:37:41;8.15;;;2.30;;
35074;SDS011;21260;34.984;32.490;2023-04-06T09:40:10;9.48;;;2.40;;
35074;SDS011;21260;34.984;32.490;2023-04-06T09:42:40;9.10;;;2.25;;
35074;SDS011;21260;34.984;32.490;2023-04-06T09:45:07;8.63;;;2.33;;
35074;SDS011;21260;34.984;32.490;2023-04-06T09:47:37;9.27;;;2.28;;
35074;SDS011;21260;34.984;32.490;2023-04-06T09:50:11;8.85;;;2.33;;
35074;SDS011;21260;34.984;32.490;2023-04-06T09:55:26;7.82;;;2.20;;
35074;SDS011;21260;34.984;32.490;2023-04-06T09:58:05;7.18;;;2.15;;
35074;SDS011;21260;34.984;32.490;2023-04-06T10:00:56;7.13;;;2.40;;
35074;SDS011;21260;34.984;32.490;2023-04-06T10:06:31;9.43;;;2.38;;
35074;SDS011;21260;34.984;32.490;2023-04-06T10:09:01;15.80;;;2.45;;
35074;SDS011;21260;34.984;32.490;2023-04-06T10:11:33;8.90;;;2.20;;
35074;SDS011;21260;34.984;32.490;2023-04-06T10:14:00;10.18;;;2.45;;
35074;SDS011;21260;34.984;32.490;2023-04-06T10:16:26;11.85;;;2.83;;
35074;SDS011;21260;34.984;32.490;2023-04-06T10:19:13;7.90;;;2.55;;
35074;SDS011;21260;34.984;32.490;2023-04-06T10:21:54;8.63;;;2.40;;
35074;SDS011;21260;34.984;32.490;2023-04-06T10:24:24;7.30;;;2.00;;
35074;SDS011;21260;34.984;32.490;2023-04-06T10:27:00;7.13;;;2.10;;
35074;SDS011;21260;34.984;32.490;2023-04-06T10:29:28;10.20;;;2.33;;
35074;SDS011;21260;34.984;32.490;2023-04-06T10:32:16;6.25;;;2.10;;
35074;SDS011;21260;34.984;32.490;2023-04-06T10:34:42;7.38;;;2.00;;
35074;SDS011;21260;34.984;32.490;2023-04-06T10:37:16;9.55;;;2.30;;
35074;SDS011;21260;34.984;32.490;2023-04-06T10:39:49;7.55;;;2.20;;
35074;SDS011;21260;34.984;32.490;2023-04-06T10:42:35;7.47;;;2.45;;
35074;SDS011;21260;34.984;32.490;2023-04-06T10:45:05;7.20;;;2.15;;
35074;SDS011;21260;34.984;32.490;2023-04-06T10:47:43;7.60;;;2.15;;
35074;SDS011;21260;34.984;32.490;2023-04-06T10:50:10;9.70;;;2.50;;
35074;SDS011;21260;34.984;32.490;2023-04-06T10:52:43;10.02;;;2.38;;
35074;SDS011;21260;34.984;32.490;2023-04-06T10:55:27;9.13;;;2.33;;
35074;SDS011;21260;34.984;32.490;2023-04-06T10:57:54;10.27;;;2.38;;
35074;SDS011;21260;34.984;32.490;2023-04-06T11:00:21;9.40;;;2.33;;
35074;SDS011;21260;34.984;32.490;2023-04-06T11:02:49;9.70;;;2.45;;
35074;SDS011;21260;34.984;32.490;2023-04-06T11:05:15;10.80;;;2.63;;
35074;SDS011;21260;34.984;32.490;2023-04-06T11:07:43;9.20;;;2.30;;
35074;SDS011;21260;34.984;32.490;2023-04-06T11:10:10;9.50;;;2.78;;
35074;SDS011;21260;34.984;32.490;2023-04-06T11:12:36;8.97;;;2.30;;
35074;SDS011;21260;34.984;32.490;2023-04-06T11:15:03;7.97;;;2.20;;
35074;SDS011;21260;34.984;32.490;2023-04-06T11:17:34;7.50;;;2.05;;
35074;SDS011;21260;34.984;32.490;2023-04-06T11:20:03;8.05;;;2.17;;
35074;SDS011;21260;34.984;32.490;2023-04-06T11:22:35;10.82;;;2.50;;
35074;SDS011;21260;34.984;32.490;2023-04-06T11:25:12;8.73;;;2.20;;
35074;SDS011;21260;34.984;32.490;2023-04-06T11:27:39;9.55;;;2.42;;
35074;SDS011;21260;34.984;32.490;2023-04-06T11:30:06;8.70;;;2.20;;
35074;SDS011;21260;34.984;32.490;2023-04-06T11:32:40;6.70;;;2.20;;
35074;SDS011;21260;34.984;32.490;2023-04-06T11:35:22;10.23;;;2.55;;
35074;SDS011;21260;34.984;32.490;2023-04-06T11:37:49;8.65;;;2.20;;
35074;SDS011;21260;34.984;32.490;2023-04-06T11:40:20;9.93;;;2.30;;
35074;SDS011;21260;34.984;32.490;2023-04-06T11:42:54;9.98;;;2.33;;
35074;SDS011;21260;34.984;32.490;2023-04-06T11:45:21;11.73;;;2.47;;
35074;SDS011;21260;34.984;32.490;2023-04-06T11:47:57;9.35;;;2.40;;
35074;SDS011;21260;34.984;32.490;2023-04-06T11:50:25;8.10;;;2.38;;
35074;SDS011;21260;34.984;32.490;2023-04-06T11:53:01;8.55;;;2.17;;
35074;SDS011;21260;34.984;32.490;2023-04-06T11:55:28;9.50;;;2.15;;
35074;SDS011;21260;34.984;32.490;2023-04-06T11:57:54;9.90;;;2.42;;
35074;SDS011;21260;34.984;32.490;2023-04-06T12:00:22;10.43;;;2.85;;
35074;SDS011;21260;34.984;32.490;2023-04-06T12:02:48;8.10;;;2.35;;
35074;SDS011;21260;34.984;32.490;2023-04-06T12:05:15;8.02;;;2.40;;
35074;SDS011;21260;34.984;32.490;2023-04-06T12:07:41;5.95;;;2.13;;
35074;SDS011;21260;34.984;32.490;2023-04-06T12:10:07;10.02;;;2.70;;
35074;SDS011;21260;34.984;32.490;2023-04-06T12:12:34;8.82;;;2.25;;
35074;SDS011;21260;34.984;32.490;2023-04-06T12:15:01;8.10;;;2.17;;
35074;SDS011;21260;34.984;32.490;2023-04-06T12:17:27;8.60;;;2.47;;
35074;SDS011;21260;34.984;32.490;2023-04-06T12:19:54;9.55;;;2.47;;
35074;SDS011;21260;34.984;32.490;2023-04-06T12:22:20;7.95;;;2.40;;
35074;SDS011;21260;34.984;32.490;2023-04-06T12:24:46;11.60;;;2.30;;
35074;SDS011;21260;34.984;32.490;2023-04-06T12:27:12;8.85;;;2.33;;
35074;SDS011;21260;34.984;32.490;2023-04-06T12:29:39;8.40;;;2.40;;
35074;SDS011;21260;34.984;32.490;2023-04-06T12:32:07;7.72;;;2.10;;
35074;SDS011;21260;34.984;32.490;2023-04-06T12:34:33;12.60;;;2.70;;
35074;SDS011;21260;34.984;32.490;2023-04-06T12:37:00;7.18;;;2.20;;
35074;SDS011;21260;34.984;32.490;2023-04-06T12:39:27;7.07;;;2.22;;
35074;SDS011;21260;34.984;32.490;2023-04-06T12:41:53;10.52;;;2.50;;
35074;SDS011;21260;34.984;32.490;2023-04-06T12:44:21;9.07;;;2.40;;
35074;SDS011;21260;34.984;32.490;2023-04-06T12:46:47;9.13;;;2.10;;
35074;SDS011;21260;34.984;32.490;2023-04-06T12:49:15;7.47;;;2.50;;
35074;SDS011;21260;34.984;32.490;2023-04-06T12:51:43;12.95;;;3.13;;
35074;SDS011;21260;34.984;32.490;2023-04-06T12:54:10;9.00;;;2.53;;
35074;SDS011;21260;34.984;32.490;2023-04-06T12:56:37;9.55;;;2.63;;
35074;SDS011;21260;34.984;32.490;2023-04-06T12:59:03;13.38;;;2.60;;
35074;SDS011;21260;34.984;32.490;2023-04-06T13:01:30;7.72;;;2.30;;
35074;SDS011;21260;34.984;32.490;2023-04-06T13:03:57;9.13;;;2.50;;
35074;SDS011;21260;34.984;32.490;2023-04-06T13:06:24;8.13;;;2.30;;
35074;SDS011;21260;34.984;32.490;2023-04-06T13:08:52;8.50;;;2.40;;
35074;SDS011;21260;34.984;32.490;2023-04-06T13:11:20;7.95;;;2.17;;
35074;SDS011;21260;34.984;32.490;2023-04-06T13:13:49;9.32;;;2.58;;
35074;SDS011;21260;34.984;32.490;2023-04-06T13:16:15;11.53;;;2.40;;
35074;SDS011;21260;34.984;32.490;2023-04-06T13:18:41;10.55;;;2.15;;
35074;SDS011;21260;34.984;32.490;2023-04-06T13:21:08;9.07;;;2.70;;
35074;SDS011;21260;34.984;32.490;2023-04-06T13:23:34;10.73;;;2.47;;
35074;SDS011;21260;34.984;32.490;2023-04-06T13:26:01;8.23;;;2.45;;
35074;SDS011;21260;34.984;32.490;2023-04-06T13:28:32;8.10;;;2.30;;
35074;SDS011;21260;34.984;32.490;2023-04-06T13:31:01;8.55;;;2.20;;
35074;SDS011;21260;34.984;32.490;2023-04-06T13:33:28;8.68;;;2.50;;
35074;SDS011;21260;34.984;32.490;2023-04-06T13:35:56;7.70;;;2.20;;
35074;SDS011;21260;34.984;32.490;2023-04-06T13:38:24;9.15;;;2.47;;
35074;SDS011;21260;34.984;32.490;2023-04-06T13:40:50;11.07;;;2.50;;
35074;SDS011;21260;34.984;32.490;2023-04-06T13:43:17;7.20;;;2.40;;
35074;SDS011;21260;34.984;32.490;2023-04-06T13:45:51;7.82;;;2.30;;
35074;SDS011;21260;34.984;32.490;2023-04-06T13:48:21;7.93;;;2.13;;
35074;SDS011;21260;34.984;32.490;2023-04-06T13:50:48;7.35;;;2.22;;
35074;SDS011;21260;34.984;32.490;2023-04-06T13:53:14;9.30;;;2.38;;
35074;SDS011;21260;34.984;32.490;2023-04-06T13:55:41;6.88;;;2.38;;
35074;SDS011;21260;34.984;32.490;2023-04-06T13:58:07;5.88;;;2.15;;
35074;SDS011;21260;34.984;32.490;2023-04-06T14:00:34;7.97;;;2.30;;
35074;SDS011;21260;34.984;32.490;2023-04-06T14:03:01;13.23;;;2.80;;
35074;SDS011;21260;34.984;32.490;2023-04-06T14:05:31;8.90;;;2.30;;
35074;SDS011;21260;34.984;32.490;2023-04-06T14:07:58;9.57;;;2.38;;
35074;SDS011;21260;34.984;32.490;2023-04-06T14:10:25;8.13;;;2.70;;
35074;SDS011;21260;34.984;32.490;2023-04-06T14:12:52;10.20;;;2.60;;
35074;SDS011;21260;34.984;32.490;2023-04-06T14:15:19;10.02;;;2.47;;
35074;SDS011;21260;34.984;32.490;2023-04-06T14:17:47;7.65;;;2.30;;
35074;SDS011;21260;34.984;32.490;2023-04-06T14:20:14;8.57;;;2.50;;
35074;SDS011;21260;34.984;32.490;2023-04-06T14:22:43;8.93;;;2.58;;
35074;SDS011;21260;34.984;32.490;2023-04-06T14:25:10;11.10;;;2.67;;
35074;SDS011;21260;34.984;32.490;2023-04-06T14:27:36;9.80;;;2.70;;
35074;SDS011;21260;34.984;32.490;2023-04-06T14:30:02;10.65;;;2.70;;
35074;SDS011;21260;34.984;32.490;2023-04-06T14:32:29;10.90;;;2.67;;
35074;SDS011;21260;34.984;32.490;2023-04-06T14:34:56;11.60;;;2.83;;